Time;durP1;ratioP1;P1;durP2;ratioP2;P2;SDS_P1;SDS_P2;PMS_P1;PMS_P2;Temp;Humidity;BMP_temperature;BMP_pressure;BME280_temperature;BME280_humidity;BME280_pressure;Samples;Min_cycle;Max_cycle;Signal;HPM_P1;HPM_P2
2022/07/11 00:00:18;;;;;;;;;1.00;1.00;;;;;18.67;63.93;102452.41;5011051;28;8890;-65
2022/07/11 00:02:45;;;;;;;;;0.00;0.00;;;;;18.66;63.88;102452.63;5019092;28;8945;-66
2022/07/11 00:05:11;;;;;;;;;0.00;0.00;;;;;18.64;64.00;102455.56;5029353;28;8924;-66
2022/07/11 00:07:38;;;;;;;;;1.00;1.00;;;;;18.63;63.93;102453.03;5031467;28;8838;-65
2022/07/11 00:10:05;;;;;;;;;1.00;1.00;;;;;18.55;64.04;102448.63;5030689;28;9474;-66
2022/07/11 00:12:32;;;;;;;;;0.75;0.50;;;;;18.50;64.28;102449.25;5031374;28;8908;-65
2022/07/11 00:14:58;;;;;;;;;1.00;1.00;;;;;18.46;64.52;102453.44;5013163;28;8999;-66
2022/07/11 00:17:24;;;;;;;;;0.00;0.00;;;;;18.48;64.77;102448.63;5012152;28;8890;-66
2022/07/11 00:19:51;;;;;;;;;0.00;0.00;;;;;18.50;64.49;102441.06;5025207;28;8964;-65
2022/07/11 00:22:18;;;;;;;;;0.00;0.00;;;;;18.51;64.46;102434.59;5032296;28;8960;-66
2022/07/11 00:24:44;;;;;;;;;1.00;0.00;;;;;18.54;64.31;102430.59;5029718;28;8826;-66
2022/07/11 00:27:12;;;;;;;;;0.75;0.75;;;;;18.52;64.31;102441.72;5011673;28;8829;-66
2022/07/11 00:29:39;;;;;;;;;0.00;0.00;;;;;18.50;64.43;102442.97;5030256;28;8919;-66
2022/07/11 00:32:06;;;;;;;;;1.00;1.00;;;;;18.48;64.87;102450.53;5031870;28;9549;-66
2022/07/11 00:34:32;;;;;;;;;0.75;0.75;;;;;18.48;64.90;102445.06;5019414;28;8955;-66
2022/07/11 00:36:59;;;;;;;;;2.00;2.00;;;;;18.49;64.90;102441.28;5029306;28;8943;-66
2022/07/11 00:39:25;;;;;;;;;1.00;1.00;;;;;18.51;65.01;102436.44;5031247;28;8848;-66
2022/07/11 00:41:52;;;;;;;;;0.00;0.00;;;;;18.52;64.87;102436.25;5030522;28;8853;-66
2022/07/11 00:44:18;;;;;;;;;0.75;0.75;;;;;18.49;64.67;102439.41;5031507;28;8869;-66
2022/07/11 00:46:45;;;;;;;;;1.00;1.00;;;;;18.47;65.36;102440.63;5024767;28;8837;-66
2022/07/11 00:49:11;;;;;;;;;2.50;0.75;;;;;18.44;65.11;102436.47;5031473;28;8896;-66
2022/07/11 00:51:38;;;;;;;;;0.75;0.75;;;;;18.46;64.93;102433.50;5014708;28;9595;-66
2022/07/11 00:54:09;;;;;;;;;0.50;0.50;;;;;18.47;65.19;102429.72;5030101;28;8932;-66
2022/07/11 00:56:35;;;;;;;;;0.00;0.00;;;;;18.47;65.00;102425.16;5031672;28;8825;-66
2022/07/11 00:59:02;;;;;;;;;1.00;1.00;;;;;18.48;65.13;102424.09;5028513;28;8823;-66
2022/07/11 01:01:30;;;;;;;;;0.00;0.00;;;;;18.49;65.25;102427.66;5018720;28;8854;-65
2022/07/11 01:03:57;;;;;;;;;0.00;0.00;;;;;18.46;65.22;102433.50;5030098;28;8838;-68
2022/07/11 01:06:24;;;;;;;;;1.00;1.00;;;;;18.48;65.33;102434.16;5023412;28;8862;-67
2022/07/11 01:08:50;;;;;;;;;0.00;0.00;;;;;18.52;65.04;102433.53;5013496;28;8971;-67
2022/07/11 01:11:18;;;;;;;;;1.25;1.00;;;;;18.49;65.25;102430.38;5030527;28;8981;-67
2022/07/11 01:13:45;;;;;;;;;1.00;1.00;;;;;18.50;65.18;102429.31;5028891;28;8957;-67
2022/07/11 01:16:14;;;;;;;;;1.75;1.00;;;;;18.51;65.25;102431.84;5029377;28;8841;-67
2022/07/11 01:18:49;;;;;;;;;1.75;1.00;;;;;18.53;64.96;102431.63;5012217;28;8843;-65
2022/07/11 01:21:35;;;;;;;;;1.75;1.75;;;;;18.52;65.14;102444.44;5012290;28;8820;-65
2022/07/11 01:24:02;;;;;;;;;1.00;1.00;;;;;18.54;65.25;102436.03;5031599;28;8838;-65
2022/07/11 01:26:29;;;;;;;;;1.00;1.00;;;;;18.54;65.16;102434.16;5032612;28;8849;-66
2022/07/11 01:29:05;;;;;;;;;1.75;1.75;;;;;18.49;65.06;102439.41;5029441;28;9523;-65
2022/07/11 01:31:32;;;;;;;;;0.50;0.50;;;;;18.45;65.46;102437.28;5034864;28;8915;-65
2022/07/11 01:33:59;;;;;;;;;1.50;1.50;;;;;18.42;65.58;102438.53;5027046;28;8853;-66
2022/07/11 01:36:26;;;;;;;;;1.00;1.00;;;;;18.44;65.58;102439.19;5018358;28;8834;-66
2022/07/11 01:38:52;;;;;;;;;1.25;0.75;;;;;18.41;65.42;102436.03;5028241;28;8838;-66
2022/07/11 01:41:18;;;;;;;;;1.50;1.25;;;;;18.38;65.75;102434.53;5022598;28;9011;-66
2022/07/11 01:43:45;;;;;;;;;1.00;1.00;;;;;18.29;65.93;102430.34;5032259;28;8826;-66
2022/07/11 01:46:11;;;;;;;;;1.00;1.00;;;;;18.31;66.22;102432.84;5034311;28;8842;-66
2022/07/11 01:48:38;;;;;;;;;1.00;1.00;;;;;18.33;66.02;102431.59;5031633;28;8821;-67
2022/07/11 01:51:05;;;;;;;;;2.00;2.00;;;;;18.38;66.10;102431.00;5032490;28;8838;-65
2022/07/11 01:53:31;;;;;;;;;1.00;1.00;;;;;18.41;65.91;102431.41;5034159;28;8992;-66
2022/07/11 01:55:57;;;;;;;;;0.00;0.00;;;;;18.40;66.10;102434.34;5033135;28;8940;-66
2022/07/11 01:58:44;;;;;;;;;2.00;1.00;;;;;18.37;65.83;102427.41;5031573;28;8943;-65
2022/07/11 02:01:10;;;;;;;;;1.00;1.00;;;;;18.39;66.05;102430.78;5034057;28;8850;-65
2022/07/11 02:03:37;;;;;;;;;0.00;0.00;;;;;18.37;65.99;102427.41;5028578;28;9545;-66
2022/07/11 02:06:05;;;;;;;;;1.00;1.00;;;;;18.34;65.98;102425.09;5026076;28;8923;-65
2022/07/11 02:08:32;;;;;;;;;2.75;1.00;;;;;18.29;66.23;102420.28;5029033;28;9549;-66
2022/07/11 02:10:58;;;;;;;;;1.50;1.50;;;;;18.31;66.41;102422.81;5026879;28;9003;-67
2022/07/11 02:13:25;;;;;;;;;1.00;1.00;;;;;18.36;66.11;102412.13;5013991;28;8832;-65
2022/07/11 02:15:53;;;;;;;;;2.00;2.00;;;;;18.40;66.06;102420.72;5013954;28;8833;-66
2022/07/11 02:18:20;;;;;;;;;0.75;0.75;;;;;18.42;66.12;102414.00;5032484;28;8870;-67
2022/07/11 02:20:50;;;;;;;;;1.00;1.00;;;;;18.46;65.81;102412.53;5032900;28;8853;-67
2022/07/11 02:23:18;;;;;;;;;1.00;1.00;;;;;18.47;65.94;102418.81;5032275;28;8842;-66
2022/07/11 02:25:45;;;;;;;;;2.00;1.00;;;;;18.44;65.80;102411.91;5033933;28;8834;-67
2022/07/11 02:28:12;;;;;;;;;2.25;2.00;;;;;18.44;65.78;102416.53;5027006;28;8824;-66
2022/07/11 02:30:40;;;;;;;;;2.00;2.00;;;;;18.41;66.09;102411.50;5014074;28;8914;-67
2022/07/11 02:33:08;;;;;;;;;2.00;2.00;;;;;18.39;66.17;102413.56;5025319;28;8875;-66
2022/07/11 02:35:35;;;;;;;;;2.00;2.00;;;;;18.39;66.00;102410.84;5033431;28;8832;-67
2022/07/11 02:38:02;;;;;;;;;2.00;2.00;;;;;18.38;66.18;102411.91;5033199;28;8834;-65
2022/07/11 02:40:28;;;;;;;;;2.75;2.75;;;;;18.33;66.37;102407.06;5032865;28;8834;-66
2022/07/11 02:42:55;;;;;;;;;1.75;1.00;;;;;18.28;66.44;102401.41;5024722;28;8817;-66
2022/07/11 02:45:22;;;;;;;;;1.25;1.25;;;;;18.26;66.59;102401.59;5032834;28;9536;-66
2022/07/11 02:47:48;;;;;;;;;1.50;1.50;;;;;18.24;66.75;102409.16;5028542;28;9541;-65
2022/07/11 02:50:15;;;;;;;;;2.75;2.75;;;;;18.21;66.89;102414.19;5031968;28;8900;-66
2022/07/11 02:52:42;;;;;;;;;2.00;2.00;;;;;18.21;67.12;102415.03;5029086;28;8864;-65
2022/07/11 02:55:10;;;;;;;;;1.00;1.00;;;;;18.21;66.96;102414.19;5031268;28;8976;-65
2022/07/11 02:57:38;;;;;;;;;1.75;1.75;;;;;18.19;66.84;102411.69;5032290;28;9540;-66
2022/07/11 03:00:06;;;;;;;;;2.25;1.00;;;;;18.21;67.13;102408.72;5031311;28;8826;-66
2022/07/11 03:02:33;;;;;;;;;1.75;1.75;;;;;18.20;67.01;102417.97;5027546;28;8833;-65
2022/07/11 03:04:59;;;;;;;;;1.25;1.25;;;;;18.22;66.91;102429.47;5030560;28;8848;-67
2022/07/11 03:07:26;;;;;;;;;1.00;1.00;;;;;18.20;66.86;102424.25;5032210;28;8846;-66
2022/07/11 03:09:54;;;;;;;;;1.25;1.25;;;;;18.21;66.78;102417.75;5032249;28;8830;-65
2022/07/11 03:12:21;;;;;;;;;3.00;3.00;;;;;18.21;67.03;102420.47;5032178;28;8858;-64
2022/07/11 03:14:48;;;;;;;;;1.25;1.25;;;;;18.19;66.91;102413.53;5028513;28;9525;-66
2022/07/11 03:17:18;;;;;;;;;2.00;1.00;;;;;18.16;67.21;102416.69;5032359;28;8842;-65
2022/07/11 03:19:46;;;;;;;;;1.00;1.00;;;;;18.10;67.09;102418.34;5030402;28;8834;-66
2022/07/11 03:22:16;;;;;;;;;1.50;0.75;;;;;18.09;67.38;102426.72;5031752;28;8865;-65
2022/07/11 03:24:43;;;;;;;;;1.00;1.00;;;;;18.12;67.17;102424.44;5023617;28;8837;-66
2022/07/11 03:27:10;;;;;;;;;1.00;1.00;;;;;18.15;67.22;102425.91;5027687;28;8889;-66
2022/07/11 03:29:40;;;;;;;;;1.00;1.00;;;;;18.15;67.14;102425.91;5012846;28;8987;-65
2022/07/11 03:32:08;;;;;;;;;2.00;2.00;;;;;18.10;67.23;102431.97;5029637;28;8837;-66
2022/07/11 03:34:35;;;;;;;;;2.00;2.00;;;;;18.03;67.95;102420.22;5025757;28;8867;-66
2022/07/11 03:37:03;;;;;;;;;1.00;1.00;;;;;18.05;67.75;102423.56;5032188;28;8900;-65
2022/07/11 03:39:29;;;;;;;;;1.50;0.50;;;;;18.07;67.87;102423.34;5032107;28;8854;-65
2022/07/11 03:41:56;;;;;;;;;1.00;1.00;;;;;18.10;67.88;102422.97;5028526;28;8856;-66
2022/07/11 03:44:22;;;;;;;;;1.00;1.00;;;;;18.13;67.80;102417.94;5030446;28;8850;-66
2022/07/11 03:46:49;;;;;;;;;1.00;1.00;;;;;18.16;67.69;102424.88;5030779;28;8822;-66
2022/07/11 03:49:15;;;;;;;;;1.50;1.25;;;;;18.12;67.82;102420.88;5029953;28;8936;-65
2022/07/11 03:51:42;;;;;;;;;1.25;1.25;;;;;18.13;67.70;102428.00;5030948;28;8850;-66
2022/07/11 03:54:08;;;;;;;;;5.00;3.50;;;;;18.13;67.65;102422.56;5028405;28;9528;-65
2022/07/11 03:56:35;;;;;;;;;2.00;2.00;;;;;18.14;67.70;102426.94;5026207;28;8833;-66
2022/07/11 03:59:02;;;;;;;;;1.00;1.00;;;;;18.11;67.92;102427.34;5029034;28;8846;-66
2022/07/11 04:01:28;;;;;;;;;3.00;1.50;;;;;18.08;67.89;102430.50;5011848;28;8837;-66
2022/07/11 04:03:55;;;;;;;;;2.00;2.00;;;;;18.04;67.98;102428.19;5025884;28;8865;-66
2022/07/11 04:06:21;;;;;;;;;0.25;0.25;;;;;18.06;67.91;102432.59;5012149;28;8998;-66
2022/07/11 04:08:47;;;;;;;;;3.00;1.00;;;;;18.07;67.69;102431.53;5010193;28;8836;-66
2022/07/11 04:11:14;;;;;;;;;0.00;0.00;;;;;18.06;67.84;102433.41;5012216;28;8829;-65
2022/07/11 04:13:40;;;;;;;;;1.00;1.00;;;;;17.99;68.08;102427.13;5025710;28;8980;-66
2022/07/11 04:16:07;;;;;;;;;2.00;2.00;;;;;17.99;68.11;102421.69;5017328;28;8832;-65
2022/07/11 04:18:34;;;;;;;;;1.00;1.00;;;;;17.98;68.29;102415.38;5024590;28;8912;-65
2022/07/11 04:21:00;;;;;;;;;1.00;1.00;;;;;17.99;68.26;102419.81;5031537;28;8842;-65
2022/07/11 04:23:34;;;;;;;;;0.75;0.75;;;;;18.03;68.18;102415.63;5032137;28;9501;-66
2022/07/11 04:26:00;;;;;;;;;0.25;0.25;;;;;18.05;68.00;102409.94;5030503;28;8881;-66
2022/07/11 04:28:26;;;;;;;;;0.00;0.00;;;;;18.06;67.99;102413.50;5031262;28;8826;-66
2022/07/11 04:30:53;;;;;;;;;0.00;0.00;;;;;18.06;68.05;102414.34;5043659;22;8901;-66
2022/07/11 04:33:19;;;;;;;;;1.00;1.00;;;;;18.06;68.15;102408.91;5030074;28;8954;-66
2022/07/11 04:35:46;;;;;;;;;0.00;0.00;;;;;18.02;67.93;102415.81;5026503;28;8827;-66
2022/07/11 04:38:12;;;;;;;;;1.00;0.50;;;;;18.00;68.23;102415.19;5026136;28;8914;-66
2022/07/11 04:40:39;;;;;;;;;1.00;0.50;;;;;18.03;68.27;102414.78;5022937;28;8831;-66
2022/07/11 04:43:05;;;;;;;;;1.00;1.00;;;;;18.07;68.47;102415.19;5022522;28;8852;-66
2022/07/11 04:45:31;;;;;;;;;1.75;1.00;;;;;18.05;68.33;102426.31;5000924;28;8956;-66
2022/07/11 04:48:01;;;;;;;;;0.00;0.00;;;;;18.06;68.07;102418.97;5004600;28;8832;-66
2022/07/11 04:50:28;;;;;;;;;2.50;1.75;;;;;18.02;68.43;102427.53;5003592;28;8906;-66
2022/07/11 04:52:55;;;;;;;;;1.00;1.00;;;;;18.04;68.79;102424.63;5029985;28;8851;-66
2022/07/11 04:55:21;;;;;;;;;2.00;2.00;;;;;18.03;68.75;102431.13;5016175;28;8877;-66
2022/07/11 04:57:48;;;;;;;;;0.25;0.25;;;;;18.09;68.88;102434.91;4997853;28;8844;-66
2022/07/11 05:00:15;;;;;;;;;1.75;1.75;;;;;18.13;68.75;102433.44;5006360;28;8849;-66
2022/07/11 05:02:41;;;;;;;;;1.00;1.00;;;;;18.10;68.72;102440.13;5010272;28;8838;-66
2022/07/11 05:05:08;;;;;;;;;2.00;1.00;;;;;18.04;68.76;102433.63;5024205;28;8826;-66
2022/07/11 05:07:35;;;;;;;;;3.50;1.00;;;;;17.93;69.05;102436.13;5030403;28;9510;-66
2022/07/11 05:10:03;;;;;;;;;3.25;1.00;;;;;17.87;69.67;102436.94;5013425;28;8850;-66
2022/07/11 05:12:30;;;;;;;;;1.00;1.00;;;;;17.87;69.98;102439.66;5014066;28;8850;-67
2022/07/11 05:14:58;;;;;;;;;1.50;1.50;;;;;17.88;70.09;102441.34;4995927;28;8834;-66
2022/07/11 05:17:26;;;;;;;;;0.00;0.00;;;;;17.86;70.22;102440.69;5014580;28;8859;-66
2022/07/11 05:19:52;;;;;;;;;1.00;1.00;;;;;17.83;70.25;102452.84;5030068;28;9542;-66
2022/07/11 05:22:19;;;;;;;;;0.00;0.00;;;;;17.76;70.43;102460.16;5033632;28;8874;-66
2022/07/11 05:24:45;;;;;;;;;2.00;0.75;;;;;17.75;70.54;102462.03;5033553;28;8847;-66
2022/07/11 05:27:12;;;;;;;;;0.25;0.25;;;;;17.75;70.85;102467.47;5009364;28;9561;-66
2022/07/11 05:29:38;;;;;;;;;2.00;0.25;;;;;17.75;71.19;102461.19;5008044;28;8846;-66
2022/07/11 05:32:06;;;;;;;;;1.75;1.00;;;;;17.81;71.08;102464.97;4997274;28;8915;-66
2022/07/11 05:34:32;;;;;;;;;1.00;1.00;;;;;17.87;70.85;102462.31;4996171;28;8869;-66
2022/07/11 05:36:59;;;;;;;;;0.67;0.67;;;;;17.91;70.67;102468.19;5013389;28;8834;-66
2022/07/11 05:39:25;;;;;;;;;0.50;0.50;;;;;17.93;70.82;102466.09;5005890;28;8860;-66
2022/07/11 05:41:52;;;;;;;;;1.00;1.00;;;;;17.94;70.47;102470.47;4994004;28;8841;-66
2022/07/11 05:44:18;;;;;;;;;1.00;0.00;;;;;17.94;70.28;102456.84;5011206;28;8859;-66
2022/07/11 05:46:45;;;;;;;;;1.00;0.25;;;;;17.96;70.49;102462.97;5017539;28;8965;-66
2022/07/11 05:49:12;;;;;;;;;0.00;0.00;;;;;17.94;70.59;102459.59;5012787;28;8843;-66
2022/07/11 05:51:39;;;;;;;;;0.75;0.75;;;;;17.83;70.87;102468.38;5025292;28;9549;-66
2022/07/11 05:54:06;;;;;;;;;0.00;0.00;;;;;17.74;71.62;102454.91;5032811;28;8858;-66
2022/07/11 05:56:32;;;;;;;;;0.25;0.25;;;;;17.73;71.41;102457.78;5013413;28;8936;-66
2022/07/11 05:58:59;;;;;;;;;0.00;0.00;;;;;17.76;71.87;102468.31;4994770;28;8836;-66
2022/07/11 06:01:26;;;;;;;;;0.75;0.75;;;;;17.76;71.71;102460.16;5006864;28;8949;-66
2022/07/11 06:04:01;;;;;;;;;0.00;0.00;;;;;17.77;71.31;102462.66;4999722;28;8847;-66
2022/07/11 06:06:27;;;;;;;;;0.00;0.00;;;;;17.83;71.85;102463.75;5025658;28;8847;-66
2022/07/11 06:08:54;;;;;;;;;0.00;0.00;;;;;17.86;71.64;102462.47;5017357;28;8850;-66
2022/07/11 06:11:20;;;;;;;;;0.00;0.00;;;;;17.91;71.47;102457.28;4993216;28;8882;-66
2022/07/11 06:13:49;;;;;;;;;0.00;0.00;;;;;18.02;71.54;102468.41;4994264;28;8890;-66
2022/07/11 06:16:17;;;;;;;;;0.00;0.00;;;;;18.10;70.90;102466.56;5012006;28;8907;-66
2022/07/11 06:18:44;;;;;;;;;0.00;0.00;;;;;18.10;70.63;102461.94;4997920;28;8832;-66
2022/07/11 06:21:12;;;;;;;;;0.00;0.00;;;;;18.09;70.64;102459.44;4993142;28;8836;-66
2022/07/11 06:23:39;;;;;;;;;0.00;0.00;;;;;18.05;70.74;102459.00;5009395;28;8898;-66
2022/07/11 06:26:06;;;;;;;;;0.00;0.00;;;;;18.04;70.71;102463.63;5018980;28;8834;-66
2022/07/11 06:28:32;;;;;;;;;1.00;0.00;;;;;18.00;70.79;102458.78;5008648;28;8835;-65
2022/07/11 06:30:59;;;;;;;;;0.00;0.00;;;;;17.96;71.02;102458.34;5007590;28;8927;-66
2022/07/11 06:33:26;;;;;;;;;0.00;0.00;;;;;17.99;71.15;102455.22;4992738;28;8867;-66
2022/07/11 06:35:52;;;;;;;;;0.00;0.00;;;;;18.01;70.84;102452.28;5006193;28;8993;-66
2022/07/11 06:38:20;;;;;;;;;0.00;0.00;;;;;18.04;70.82;102451.88;4997881;28;8984;-66
2022/07/11 06:40:47;;;;;;;;;0.00;0.00;;;;;18.03;70.48;102451.03;5014226;28;8958;-66
2022/07/11 06:43:14;;;;;;;;;0.00;0.00;;;;;18.00;69.86;102453.34;5004445;28;9533;-66
2022/07/11 06:45:40;;;;;;;;;0.00;0.00;;;;;17.96;69.88;102458.34;5010438;28;8838;-66
2022/07/11 06:48:07;;;;;;;;;0.00;0.00;;;;;17.96;69.49;102452.91;5002998;28;8847;-66
2022/07/11 06:50:34;;;;;;;;;0.00;0.00;;;;;18.06;69.23;102455.22;5006531;28;8860;-66
2022/07/11 06:53:00;;;;;;;;;0.00;0.00;;;;;18.10;68.54;102461.94;4993213;28;8840;-66
2022/07/11 06:55:26;;;;;;;;;0.00;0.00;;;;;18.11;68.35;102462.78;4985343;28;8835;-66
2022/07/11 06:57:53;;;;;;;;;0.00;0.00;;;;;18.16;68.23;102468.47;5012143;28;8837;-66
2022/07/11 07:00:39;;;;;;;;;0.00;0.00;;;;;18.21;68.02;102464.09;4997766;28;8850;-67
2022/07/11 07:03:08;;;;;;;;;0.00;0.00;;;;;18.25;67.84;102473.53;5009476;28;8834;-67
2022/07/11 07:05:45;;;;;;;;;1.50;0.00;;;;;18.26;67.64;102477.94;5000916;28;8851;-66
2022/07/11 07:08:15;;;;;;;;;0.00;0.00;;;;;18.36;67.65;102471.25;5000493;28;8875;-67
2022/07/11 07:10:42;;;;;;;;;0.00;0.00;;;;;18.44;66.98;102485.53;4994277;28;8841;-67
2022/07/11 07:13:09;;;;;;;;;0.00;0.00;;;;;18.47;66.90;102476.94;4994803;28;8934;-67
2022/07/11 07:15:35;;;;;;;;;0.00;0.00;;;;;18.47;66.22;102481.53;4984555;28;8844;-67
2022/07/11 07:18:02;;;;;;;;;0.00;0.00;;;;;18.38;66.25;102480.91;5002252;28;8977;-66
2022/07/11 07:20:29;;;;;;;;;0.00;0.00;;;;;18.37;66.53;102478.38;5004228;28;8842;-67
2022/07/11 07:22:57;;;;;;;;;0.00;0.00;;;;;18.38;66.86;102480.06;5004830;28;8925;-67
2022/07/11 07:25:23;;;;;;;;;0.00;0.00;;;;;18.39;66.98;102479.00;5002812;28;8846;-67
2022/07/11 07:27:50;;;;;;;;;0.00;0.00;;;;;18.36;67.06;102479.44;5011791;28;8967;-66
2022/07/11 07:30:17;;;;;;;;;0.00;0.00;;;;;18.31;67.35;102484.66;4989606;28;8915;-66
2022/07/11 07:32:43;;;;;;;;;0.00;0.00;;;;;18.31;67.92;102484.66;5014440;28;8831;-66
2022/07/11 07:35:10;;;;;;;;;0.00;0.00;;;;;18.31;68.09;102488.25;5012017;28;8851;-66
2022/07/11 07:37:36;;;;;;;;;0.00;0.00;;;;;18.31;68.30;102492.81;5030235;28;8851;-67
2022/07/11 07:40:03;;;;;;;;;0.00;0.00;;;;;18.34;68.00;102487.81;5008189;28;8936;-67
2022/07/11 07:42:30;;;;;;;;;0.00;0.00;;;;;18.40;67.61;102487.00;5007470;28;8960;-67
2022/07/11 07:44:57;;;;;;;;;0.00;0.00;;;;;18.33;67.67;102488.88;4990721;28;8834;-67
2022/07/11 07:47:23;;;;;;;;;0.00;0.00;;;;;18.32;67.60;102491.81;5002153;28;8830;-67
2022/07/11 07:49:50;;;;;;;;;0.00;0.00;;;;;18.27;67.63;102490.53;5014839;28;8853;-67
2022/07/11 07:52:17;;;;;;;;;0.00;0.00;;;;;18.25;67.60;102486.31;5005930;28;8831;-67
2022/07/11 07:54:43;;;;;;;;;0.00;0.00;;;;;18.31;67.56;102490.09;4978529;28;8870;-67
2022/07/11 07:57:10;;;;;;;;;0.00;0.00;;;;;18.38;67.35;102493.69;4999593;28;8868;-67
2022/07/11 07:59:36;;;;;;;;;0.00;0.00;;;;;18.47;66.70;102496.03;5000704;28;8905;-67
2022/07/11 08:02:03;;;;;;;;;0.00;0.00;;;;;18.52;66.80;102489.97;5011122;28;8830;-67
2022/07/11 08:04:29;;;;;;;;;0.00;0.00;;;;;18.60;66.18;102494.38;4991024;28;8926;-66
2022/07/11 08:06:59;;;;;;;;;0.00;0.00;;;;;18.65;65.61;102498.16;4990992;28;8844;-66
2022/07/11 08:09:25;;;;;;;;;0.00;0.00;;;;;18.74;65.80;102496.09;4990358;28;8852;-65
2022/07/11 08:11:52;;;;;;;;;0.00;0.00;;;;;18.80;65.32;102497.16;5009155;28;8986;-65
2022/07/11 08:14:18;;;;;;;;;0.00;0.00;;;;;18.79;65.21;102493.56;5006868;28;9606;-66
2022/07/11 08:16:45;;;;;;;;;0.00;0.00;;;;;18.80;65.50;102500.75;5021573;28;8831;-66
2022/07/11 08:19:12;;;;;;;;;0.00;0.00;;;;;18.78;65.30;102500.94;4994565;28;8903;-66
2022/07/11 08:21:39;;;;;;;;;0.00;0.00;;;;;18.75;65.33;102503.22;5009908;28;8838;-66
2022/07/11 08:24:06;;;;;;;;;0.00;0.00;;;;;18.69;65.47;102498.59;5009110;28;8841;-66
2022/07/11 08:26:32;;;;;;;;;0.00;0.00;;;;;18.67;65.63;102496.06;5015829;28;8862;-66
2022/07/11 08:29:01;;;;;;;;;0.00;0.00;;;;;18.69;65.82;102498.59;5002057;28;8836;-66
2022/07/11 08:31:28;;;;;;;;;0.00;0.00;;;;;18.74;65.84;102498.81;4991784;28;9599;-65
2022/07/11 08:33:57;;;;;;;;;0.00;0.00;;;;;18.74;65.76;102496.94;4994383;28;8833;-65
2022/07/11 08:36:24;;;;;;;;;0.00;0.00;;;;;18.79;65.94;102504.50;5005577;28;8850;-65
2022/07/11 08:38:50;;;;;;;;;0.00;0.00;;;;;18.84;65.30;102495.69;5017428;28;8842;-65
2022/07/11 08:41:19;;;;;;;;;0.00;0.00;;;;;18.91;65.16;102491.91;5024917;28;8920;-65
2022/07/11 08:43:46;;;;;;;;;0.00;0.00;;;;;18.97;64.89;102490.25;4991764;28;9579;-65
2022/07/11 08:46:14;;;;;;;;;0.00;0.00;;;;;19.00;64.54;102484.38;5022197;28;8863;-65
2022/07/11 08:48:42;;;;;;;;;0.00;0.00;;;;;19.01;64.47;102486.03;5033237;28;8954;-65
2022/07/11 08:51:09;;;;;;;;;0.00;0.00;;;;;18.99;64.37;102488.13;5008361;28;8968;-65
2022/07/11 08:53:41;;;;;;;;;0.00;0.00;;;;;19.03;64.56;102492.97;4999623;28;8931;-65
2022/07/11 08:56:10;;;;;;;;;0.00;0.00;;;;;19.06;64.18;102496.34;5005062;28;8860;-65
2022/07/11 08:58:37;;;;;;;;;0.00;0.00;;;;;18.98;64.31;102498.22;5020308;28;8839;-65
2022/07/11 09:01:05;;;;;;;;;0.00;0.00;;;;;18.97;64.65;102496.53;4997136;28;8836;-65
2022/07/11 09:03:35;;;;;;;;;0.00;0.00;;;;;18.99;64.27;102494.44;4989054;28;8953;-65
2022/07/11 09:06:01;;;;;;;;;0.00;0.00;;;;;18.92;64.89;102496.34;5005660;28;8862;-65
2022/07/11 09:08:29;;;;;;;;;0.75;0.00;;;;;18.85;65.64;102492.75;5013378;28;8821;-65
2022/07/11 09:10:56;;;;;;;;;0.00;0.00;;;;;18.88;65.74;102484.16;5012485;28;8834;-65
2022/07/11 09:13:28;;;;;;;;;1.50;0.00;;;;;18.92;65.98;102484.56;5029958;28;8925;-65
2022/07/11 09:16:01;;;;;;;;;1.00;0.00;;;;;18.93;65.85;102486.25;5004807;28;8849;-66
2022/07/11 09:18:41;;;;;;;;;0.50;0.50;;;;;18.87;66.02;102492.53;5012958;28;8834;-64
2022/07/11 09:26:51;;;;;;;;;0.00;0.00;;;;;18.94;65.94;102490.66;5002544;28;8861;-65
2022/07/11 09:29:24;;;;;;;;;0.00;0.00;;;;;19.03;65.90;102494.84;5008725;28;8866;-65
2022/07/11 09:31:51;;;;;;;;;0.00;0.00;;;;;19.09;65.51;102487.72;5011286;28;8976;-65
2022/07/11 09:34:19;;;;;;;;;0.00;0.00;;;;;19.12;65.64;102488.16;4987151;28;8856;-65
2022/07/11 09:36:47;;;;;;;;;0.00;0.00;;;;;19.15;65.63;102484.97;5006315;28;8869;-65
2022/07/11 09:39:16;;;;;;;;;0.75;0.75;;;;;19.20;65.46;102479.75;5018293;28;8957;-65
2022/07/11 09:41:43;;;;;;;;;1.00;0.00;;;;;19.24;65.06;102483.72;4999110;28;8938;-65
2022/07/11 09:44:16;;;;;;;;;0.00;0.00;;;;;19.22;65.19;102479.53;4993242;28;8842;-65
2022/07/11 09:46:46;;;;;;;;;0.00;0.00;;;;;19.25;65.23;102481.84;5002755;28;9615;-64
2022/07/11 09:49:13;;;;;;;;;0.00;0.00;;;;;19.27;64.81;102486.00;4976434;28;8844;-65
2022/07/11 09:51:41;;;;;;;;;0.00;0.00;;;;;19.27;64.60;102491.47;4992657;28;8852;-65
2022/07/11 09:54:09;;;;;;;;;0.00;0.00;;;;;19.27;64.31;102491.47;5009716;28;9624;-65
2022/07/11 09:56:51;;;;;;;;;0.00;0.00;;;;;19.32;64.12;102490.00;5018956;28;8836;-65
2022/07/11 09:59:23;;;;;;;;;0.00;0.00;;;;;19.27;63.67;102501.56;4994993;28;8832;-65
2022/07/11 10:01:49;;;;;;;;;0.00;0.00;;;;;19.13;64.28;102489.81;5012664;28;8834;-66
2022/07/11 10:04:16;;;;;;;;;0.00;0.00;;;;;19.15;64.87;102487.72;4993281;28;8828;-65
2022/07/11 10:06:44;;;;;;;;;0.00;0.00;;;;;19.22;64.54;102490.44;5011371;28;8852;-65
2022/07/11 10:09:11;;;;;;;;;0.00;0.00;;;;;19.21;64.95;102492.34;4992171;28;8826;-65
2022/07/11 10:11:38;;;;;;;;;0.00;0.00;;;;;19.28;64.65;102484.13;5003525;28;8814;-65
2022/07/11 10:14:07;;;;;;;;;0.00;0.00;;;;;19.36;64.51;102493.97;5003698;28;8902;-65
2022/07/11 10:17:01;;;;;;;;;0.00;0.00;;;;;19.36;64.54;102489.34;5007154;28;8939;-65
2022/07/11 10:19:40;;;;;;;;;0.00;0.00;;;;;19.45;64.44;102495.47;5002071;28;8899;-66
2022/07/11 10:22:42;;;;;;;;;0.00;0.00;;;;;19.47;64.29;102496.06;4993566;28;8840;-66
2022/07/11 10:25:21;;;;;;;;;0.00;0.00;;;;;19.48;64.46;102489.53;5008146;28;8838;-66
2022/07/11 10:27:59;;;;;;;;;0.00;0.00;;;;;19.52;64.41;102493.53;5008548;28;8834;-66
2022/07/11 10:30:47;;;;;;;;;1.00;1.00;;;;;19.47;64.55;102493.34;5034830;22;8894;-66
2022/07/11 10:33:15;;;;;;;;;0.00;0.00;;;;;19.49;64.68;102485.78;5024060;28;8941;-66
2022/07/11 10:35:52;;;;;;;;;0.00;0.00;;;;;19.55;64.86;102486.81;5019538;28;8842;-66
2022/07/11 10:38:19;;;;;;;;;0.00;0.00;;;;;19.59;64.68;102493.53;5011815;28;8822;-66
2022/07/11 10:40:50;;;;;;;;;0.50;0.50;;;;;19.61;64.51;102496.91;5017912;28;8904;-67
2022/07/11 10:43:22;;;;;;;;;0.75;0.00;;;;;19.67;64.42;102488.69;5011405;28;8889;-66
2022/07/11 10:45:59;;;;;;;;;0.00;0.00;;;;;19.72;64.26;102488.03;4992453;28;8838;-66
2022/07/11 10:48:27;;;;;;;;;0.00;0.00;;;;;19.77;64.06;102493.72;5007355;28;8910;-66
2022/07/11 10:51:01;;;;;;;;;0.00;0.00;;;;;19.79;64.14;102493.50;5007739;28;9662;-66
2022/07/11 10:53:33;;;;;;;;;0.00;0.00;;;;;19.84;64.17;102493.69;5009995;28;8842;-66
2022/07/11 10:56:44;;;;;;;;;0.00;0.00;;;;;19.84;63.79;102496.41;5009270;28;8881;-66
2022/07/11 10:59:20;;;;;;;;;0.00;0.00;;;;;19.75;64.17;102493.09;4999381;28;8868;-67
2022/07/11 11:02:03;;;;;;;;;0.00;0.00;;;;;19.78;64.11;102502.75;5006448;28;8953;-66
2022/07/11 11:04:50;;;;;;;;;1.00;1.00;;;;;19.82;64.14;102506.75;5003255;28;8837;-65
2022/07/11 11:07:36;;;;;;;;;1.00;1.00;;;;;19.87;64.03;102504.19;5009170;28;8893;-66
2022/07/11 11:10:07;;;;;;;;;0.00;0.00;;;;;19.91;64.32;102509.00;5007546;28;8866;-66
2022/07/11 11:13:09;;;;;;;;;0.00;0.00;;;;;19.96;64.30;102500.16;4998930;28;8922;-66
2022/07/11 11:16:09;;;;;;;;;1.00;1.00;;;;;19.99;63.68;102499.72;5000034;28;9690;-65
2022/07/11 11:18:41;;;;;;;;;0.50;0.00;;;;;20.04;63.67;102497.19;4991160;28;8874;-65
2022/07/11 11:21:09;;;;;;;;;0.00;0.00;;;;;20.06;63.26;102506.00;5005858;28;8915;-66
2022/07/11 11:23:38;;;;;;;;;1.00;1.00;;;;;20.05;63.17;102492.53;5002808;28;8848;-65
2022/07/11 11:26:05;;;;;;;;;1.00;1.00;;;;;20.09;63.03;102499.25;5010507;28;8900;-65
2022/07/11 11:28:32;;;;;;;;;1.00;1.00;;;;;20.19;62.89;102502.38;5009920;28;8818;-65
2022/07/11 11:31:02;;;;;;;;;0.50;0.50;;;;;20.23;62.88;102492.69;5002006;28;8895;-65
2022/07/11 11:33:32;;;;;;;;;2.00;1.00;;;;;20.22;62.54;102493.75;5007821;28;8900;-67
2022/07/11 11:36:12;;;;;;;;;0.00;0.00;;;;;20.15;62.80;102493.75;5009970;28;8979;-65
2022/07/11 11:38:40;;;;;;;;;1.00;1.00;;;;;20.18;62.92;102495.25;4982795;28;8868;-66
2022/07/11 11:41:08;;;;;;;;;0.00;0.00;;;;;20.25;63.01;102479.59;5008367;28;8858;-65
2022/07/11 11:43:36;;;;;;;;;0.00;0.00;;;;;20.34;62.33;102481.06;4994445;28;8869;-66
2022/07/11 11:46:03;;;;;;;;;1.50;1.50;;;;;20.43;61.51;102481.63;5008630;28;8834;-66